Terminal Aerodrome Forecast
Issued by NWS Lake Charles, LA

Home | Current Version | Previous Version | Text Only | Print | Product List | Glossary On
Versions: 1 2 3 4 5 6 7 8 9 10 11 12 13 14 15 16 17 18 19 20 21 22 23 24 25 26 27 28 29 30
000
FTUS44 KLCH 151803 AAA
TAFBPT
TAF AMD
KBPT 151803Z 1518/1618 19012G20KT P6SM VCTS BKN040CB
      TEMPO 1518/1521 OVC030CB
     FM152100 19013KT P6SM SCT250
     FM160500 17009KT P6SM BKN013
     FM160600 17009KT P6SM SCT011 PROB30 1612/1614 4SM -SHRA BKN035=

USA.gov is the U.S. government's official web portal to all federal, state and local government web resources and services.